TimeCST,TemperatureF,Dew PointF,Humidity,Sea Level PressureIn,VisibilityMPH,Wind Direction,Wind SpeedMPH,Gust SpeedMPH,PrecipitationIn,Events,Conditions,WindDirDegrees,DateUTC
12:53 AM,48.0,37.9,68,29.82,10.0,South,8.1,-,N/A,,Clear,190,2014-02-14 06:53:00
1:53 AM,46.9,37.0,68,29.79,10.0,ESE,6.9,-,N/A,,Clear,120,2014-02-14 07:53:00
2:53 AM,46.9,37.0,68,29.77,10.0,SE,3.5,-,N/A,,Clear,140,2014-02-14 08:53:00
3:53 AM,46.0,36.0,68,29.76,10.0,South,4.6,-,N/A,,Clear,180,2014-02-14 09:53:00
4:53 AM,45.0,36.0,71,29.74,10.0,SSE,3.5,-,N/A,,Clear,160,2014-02-14 10:53:00
5:53 AM,45.0,36.0,71,29.73,10.0,South,6.9,-,N/A,,Clear,180,2014-02-14 11:53:00
6:53 AM,44.1,36.0,73,29.72,10.0,South,8.1,-,N/A,,Clear,180,2014-02-14 12:53:00
7:53 AM,44.1,37.0,76,29.73,10.0,South,5.8,-,N/A,,Clear,180,2014-02-14 13:53:00
8:53 AM,52.0,37.9,59,29.75,10.0,SW,6.9,-,N/A,,Clear,230,2014-02-14 14:53:00
9:53 AM,63.0,36.0,37,29.77,10.0,NW,16.1,21.9,N/A,,Clear,310,2014-02-14 15:53:00
10:53 AM,64.9,36.0,34,29.83,10.0,NNW,20.7,29.9,N/A,,Clear,330,2014-02-14 16:53:00
11:53 AM,66.9,37.0,33,29.86,10.0,NNW,24.2,33.4,N/A,,Clear,340,2014-02-14 17:53:00
12:53 PM,69.1,36.0,30,29.90,10.0,North,25.3,34.5,N/A,,Clear,360,2014-02-14 18:53:00
1:53 PM,70.0,30.0,23,29.90,10.0,North,23.0,34.5,N/A,,Clear,350,2014-02-14 19:53:00
2:53 PM,71.1,27.0,19,29.92,10.0,North,27.6,36.8,N/A,,Clear,360,2014-02-14 20:53:00
3:53 PM,70.0,26.1,19,29.95,10.0,North,16.1,28.8,N/A,,Clear,350,2014-02-14 21:53:00
4:53 PM,68.0,21.0,17,29.97,10.0,NNW,21.9,27.6,N/A,,Clear,340,2014-02-14 22:53:00
5:53 PM,64.0,23.0,21,30.00,10.0,NNW,11.5,-,N/A,,Clear,340,2014-02-14 23:53:00
6:53 PM,59.0,24.1,26,30.04,10.0,NNW,6.9,-,N/A,,Clear,340,2014-02-15 00:53:00
7:53 PM,51.1,26.1,38,30.06,10.0,North,6.9,-,N/A,,Clear,350,2014-02-15 01:53:00
8:53 PM,51.1,27.0,39,30.07,10.0,North,5.8,-,N/A,,Clear,350,2014-02-15 02:53:00
9:53 PM,51.1,27.0,39,30.07,10.0,North,5.8,-,N/A,,Clear,360,2014-02-15 03:53:00
10:53 PM,50.0,27.0,41,30.08,10.0,NW,4.6,-,N/A,,Clear,320,2014-02-15 04:53:00
11:53 PM,46.9,27.0,46,30.09,10.0,NNW,4.6,-,N/A,,Clear,340,2014-02-15 05:53:00